Latest Weather Observations for Christmas Island

IDW60801

Issued at 12:33 am WST Monday 25 July 2016 (issued every 30 minutes, with the page automatically refreshed every 10 minutes)

About weather observations | Map of weather stations | Latest weather observations for WA | Other Formats
Station Details ID: 200790 Name: CHRISTMAS ISLAND AERO Lat: -10.45 Lon: 105.69 Height: 261.0 m
Data from the previous 72 hours. | See also: Recent months at Christmas Island
Date/Time
WST
Temp
°C
App
Temp
°C
Dew
Point
°C
Rel
Hum
%
Delta-T
°C
Wind Press
QNH
hPa
Press
MSL
hPa
Rain since
9am
mm
Dir  Spd
km/h
Gust
km/h
Spd
kts
Gust
kts
25/12:30am 23.6 28.9 23.0 96 0.4 CALM 0 0 0 0 1013.7 - 0.0
25/12:00am 23.8 28.8 23.2 96 0.4 NE 2 6 1 3 1014.0 - 0.0
 
Date/Time
WST
Temp
°C
App
Temp
°C
Dew
Point
°C
Rel
Hum
%
Delta-T
°C
Wind Press
QNH
hPa
Press
MSL
hPa
Rain since
9am
mm
Dir  Spd
km/h
Gust
km/h
Spd
kts
Gust
kts
24/11:37pm 23.6 28.8 22.9 96 0.5 CALM 0 0 0 0 1013.9 - 0.0
24/11:30pm 23.5 28.7 22.9 96 0.4 CALM 0 0 0 0 1013.9 - 0.0
24/11:16pm 23.5 28.3 22.9 96 0.4 NE 2 6 1 3 1014.0 - 0.0
24/11:00pm 23.5 28.7 22.9 96 0.4 CALM 0 0 0 0 1013.9 - 0.0
24/10:35pm 23.6 28.8 22.9 96 0.5 CALM 0 0 0 0 1013.8 - 0.0
24/10:30pm 23.6 28.9 23.0 96 0.4 CALM 0 0 0 0 1013.7 - 0.0
24/10:22pm 23.7 29.0 23.0 96 0.5 CALM 0 0 0 0 1013.7 - 0.0
24/10:00pm 23.8 29.1 23.1 96 0.5 CALM 0 0 0 0 1013.8 1012.4 0.0
24/09:30pm 24.0 29.4 23.3 96 0.5 CALM 0 0 0 0 1013.7 - 0.0
24/09:00pm 24.2 29.6 23.3 95 0.6 CALM 0 0 0 0 1013.5 - 0.0
24/08:30pm 24.4 30.0 23.5 95 0.6 CALM 0 0 0 0 1013.1 - 0.0
24/08:00pm 24.6 30.2 23.6 94 0.7 CALM 0 0 0 0 1012.7 - 0.0
24/07:30pm 25.0 30.7 23.8 93 0.8 CALM 0 0 0 0 1012.4 - 0.0
24/07:00pm 25.7 31.5 24.0 90 1.2 CALM 0 0 0 0 1012.2 1010.7 0.0
24/06:30pm 26.5 32.2 23.8 85 1.9 CALM 0 0 0 0 1011.9 - 0.0
24/06:00pm 27.2 31.3 23.3 79 2.7 NE 7 9 4 5 1011.8 - 0.0
24/05:36pm 27.4 31.3 23.6 80 2.6 NE 9 11 5 6 1011.6 - 0.0
24/05:30pm 27.5 31.5 23.8 80 2.6 NE 9 13 5 7 1011.6 - 0.0
24/05:05pm 27.2 30.9 23.9 82 2.3 NE 11 15 6 8 1011.3 - 0.0
24/05:00pm 27.1 30.8 23.9 82 2.2 NE 11 13 6 7 1011.2 - 0.0
24/04:30pm 27.1 30.9 23.5 81 2.5 NE 9 13 5 7 1011.0 - 0.0
24/04:00pm 27.3 31.3 23.8 81 2.4 NE 9 13 5 7 1011.0 1009.6 0.0
24/03:30pm 27.5 30.7 23.1 77 3.0 NE 11 13 6 7 1011.3 - 0.0
24/02:00pm 27.8 30.5 23.5 77 3.0 NE 15 19 8 10 1011.8 - 0.0
24/01:30pm 28.9 31.9 23.4 72 3.8 NE 13 17 7 9 1012.2 - 0.0
24/01:25pm 28.2 31.5 23.9 77 3.0 NE 13 19 7 10 1012.2 - 0.0
24/01:00pm 28.5 32.1 24.4 78 2.9 NNE 13 19 7 10 1012.5 1011.0 0.0
24/12:44pm 28.7 32.3 24.3 77 3.1 NNE 13 20 7 11 1012.7 - 0.0
24/12:30pm 27.8 30.4 22.7 74 3.5 NE 13 20 7 11 1012.8 - 0.0
24/12:00pm 28.0 30.7 22.9 74 3.5 NNE 13 20 7 11 1013.2 - 0.0
24/11:30am 27.7 31.1 24.1 81 2.5 NE 13 19 7 10 1013.5 - 0.0
24/11:07am 27.9 31.5 24.3 81 2.5 NE 13 17 7 9 1013.7 - 0.0
24/11:00am 27.7 30.9 24.3 82 2.4 NE 15 19 8 10 1013.8 - 0.0
24/10:53am 27.5 30.8 24.5 84 2.1 NE 15 19 8 10 1013.8 - 0.0
24/10:46am 27.6 31.2 24.3 82 2.3 NNE 13 17 7 9 1013.7 - 0.0
24/10:30am 27.7 30.9 24.4 82 2.3 NE 15 19 8 10 1013.9 - 0.0
24/10:00am 27.3 30.3 24.0 82 2.3 NE 15 19 8 10 1014.2 1012.8 0.2
24/09:30am 26.5 30.6 24.5 89 1.4 ENE 11 19 6 10 1014.2 - 0.2
24/09:00am 26.1 30.0 24.2 89 1.3 NE 11 17 6 9 1014.1 - 0.2
24/08:30am 26.0 29.6 24.3 90 1.2 NE 13 17 7 9 1013.3 - 0.2
24/08:00am 25.5 29.8 24.2 92 0.9 N 9 13 5 7 1012.8 - 0.2
24/07:30am 24.8 29.0 23.5 92 0.9 N 7 9 4 5 1012.3 - 0.2
24/07:10am 24.8 29.1 23.6 93 0.8 N 7 11 4 6 1012.2 - 0.2
24/07:00am 24.6 28.8 23.4 93 0.8 N 7 9 4 5 1012.1 1010.6 0.2
24/06:30am 24.7 29.2 24.0 96 0.5 N 7 9 4 5 1011.7 - 0.2
24/06:28am 24.8 29.4 24.1 96 0.5 N 7 9 4 5 1011.7 - 0.2
24/06:00am 25.0 29.7 24.3 96 0.5 N 7 9 4 5 1011.5 - 0.2
24/05:30am 25.2 29.9 24.3 95 0.6 N 7 11 4 6 1011.3 - 0.2
24/05:00am 24.9 29.2 23.7 93 0.8 N 7 9 4 5 1011.3 - 0.2
24/04:55am 24.8 29.3 23.6 93 0.8 N 6 9 3 5 1011.3 - 0.2
24/04:30am 24.8 28.4 23.8 94 0.7 N 11 15 6 8 1011.4 - 0.2
24/04:00am 24.8 28.8 23.8 94 0.7 N 9 11 5 6 1011.5 1010.1 0.2
24/03:30am 24.7 28.5 23.5 93 0.8 N 9 11 5 6 1011.8 - 0.2
24/03:00am 24.8 28.0 22.4 86 1.6 N 9 13 5 7 1012.2 - 0.2
24/02:30am 25.2 28.5 23.9 92 0.9 N 13 20 7 11 1012.4 - 0.2
24/02:26am 25.6 29.5 24.3 92 0.9 N 11 15 6 8 1012.5 - 0.2
24/02:00am 25.6 29.7 24.5 94 0.8 N 11 15 6 8 1012.4 - 0.2
24/01:30am 25.6 29.2 24.3 92 0.9 N 13 19 7 10 1012.5 - 0.2
24/01:23am 25.6 29.2 24.3 92 0.9 N 13 17 7 9 1012.6 - 0.2
24/01:00am 25.7 29.5 24.7 94 0.7 N 13 19 7 10 1012.7 1011.2 0.2
24/12:45am 25.6 29.7 24.6 94 0.7 N 11 15 6 8 1012.8 - 0.2
24/12:30am 25.6 29.3 24.6 94 0.7 N 13 17 7 9 1012.9 - 0.2
24/12:00am 25.5 29.6 24.5 94 0.7 N 11 15 6 8 1013.0 - 0.2
 
Date/Time
WST
Temp
°C
App
Temp
°C
Dew
Point
°C
Rel
Hum
%
Delta-T
°C
Wind Press
QNH
hPa
Press
MSL
hPa
Rain since
9am
mm
Dir  Spd
km/h
Gust
km/h
Spd
kts
Gust
kts
23/11:30pm 25.3 29.5 24.1 93 0.8 N 9 13 5 7 1013.1 - 0.2
23/11:00pm 25.4 29.2 24.0 92 1.0 N 11 15 6 8 1013.1 - 0.2
23/10:30pm 25.3 28.8 23.6 90 1.2 N 11 17 6 9 1013.1 - 0.2
23/10:00pm 25.3 28.9 23.7 91 1.1 N 11 15 6 8 1013.2 1011.8 0.2
23/09:30pm 25.6 29.4 24.0 91 1.1 N 11 17 6 9 1013.2 - 0.2
23/09:00pm 25.6 29.4 24.0 91 1.1 N 11 13 6 7 1012.8 - 0.2
23/08:30pm 25.6 29.0 24.0 91 1.1 N 13 20 7 11 1011.9 - 0.2
23/08:00pm 25.8 30.2 24.4 92 1.0 N 9 15 5 8 1011.6 - 0.2
23/07:30pm 25.6 29.3 23.9 90 1.2 N 11 15 6 8 1011.2 - 0.2
23/07:00pm 25.7 29.5 24.0 90 1.2 N 11 15 6 8 1010.7 1009.3 0.2
23/06:30pm 26.0 29.8 24.1 89 1.3 N 11 15 6 8 1010.5 - 0.2
23/06:00pm 26.5 29.6 24.1 87 1.7 N 15 20 8 11 1010.5 - 0.2
23/05:30pm 27.1 29.8 24.2 84 2.0 N 17 22 9 12 1010.7 - 0.2
23/05:26pm 27.2 30.0 24.3 84 2.0 N 17 20 9 11 1010.7 - 0.2
23/05:06pm 27.3 29.9 24.6 85 1.9 N 19 28 10 15 1010.7 - 0.2
23/05:05pm 27.2 29.5 24.5 85 1.9 N 20 28 11 15 1010.7 - 0.2
23/05:00pm 27.5 29.8 24.4 83 2.2 NNE 20 28 11 15 1010.7 - 0.2
23/04:30pm 27.4 29.6 24.3 83 2.2 NNE 20 26 11 14 1010.8 - 0.2
23/04:04pm 27.9 30.4 24.8 83 2.2 N 20 26 11 14 1010.7 - 0.2
23/04:00pm 27.8 30.3 24.7 83 2.2 N 20 26 11 14 1010.6 1009.2 0.2
23/03:30pm 27.4 29.3 24.4 84 2.1 N 22 28 12 15 1010.8 - 0.2
23/03:22pm 27.4 29.7 24.4 84 2.1 N 20 26 11 14 1010.8 - 0.2
23/03:02pm 27.0 30.2 24.4 86 1.8 N 15 22 8 12 1010.9 - 0.2
23/03:00pm 27.1 30.0 24.4 85 1.9 N 17 22 9 12 1010.9 - 0.2
23/02:30pm 27.9 30.7 24.3 81 2.5 N 17 22 9 12 1011.2 - 0.0
23/02:00pm 27.1 29.7 23.9 82 2.2 N 17 26 9 14 1011.6 - 0.0
23/01:51pm 26.8 29.4 23.9 84 2.0 N 17 22 9 12 1011.6 - 0.0
23/01:30pm 26.5 29.6 24.2 87 1.6 N 15 20 8 11 1011.6 - 0.0
23/01:00pm 26.5 28.8 24.4 88 1.5 N 20 28 11 15 1011.9 1010.5 0.0
23/12:30pm 26.2 27.5 24.0 88 1.5 N 24 30 13 16 1011.9 - 0.0
23/12:25pm 26.3 28.3 24.0 87 1.6 N 20 32 11 17 1011.9 - 0.0
23/12:00pm 26.3 28.2 23.8 86 1.7 N 20 26 11 14 1012.4 - 0.0
23/11:30am 25.6 28.0 23.7 89 1.3 N 17 28 9 15 1012.8 - 0.0
23/11:00am 24.5 26.1 22.9 91 1.1 N 19 30 10 16 1013.1 - 0.0
23/10:30am 23.9 26.1 22.6 92 0.9 NNW 15 22 8 12 1013.0 - 0.0
23/10:00am 22.5 24.1 20.7 89 1.2 NNW 13 19 7 10 1013.1 1011.7 39.6
23/09:40am 21.8 23.3 20.6 93 0.8 NW 13 20 7 11 1012.8 - 39.6
23/09:30am 21.9 23.6 21.0 95 0.6 NW 13 20 7 11 1013.1 - 39.4
23/09:09am 21.8 23.2 21.0 95 0.5 NNW 15 22 8 12 1014.0 - 36.4
23/09:00am 21.8 22.2 21.0 95 0.5 N 20 39 11 21 1014.0 - 35.8
23/08:46am 22.4 23.3 21.5 95 0.6 NNW 19 33 10 18 1013.4 - 27.8
23/08:44am 22.9 24.0 22.0 95 0.6 NNW 19 32 10 17 1013.4 - 26.0
23/08:38am 23.8 26.3 22.5 92 0.9 NNW 13 19 7 10 1013.2 - 25.4
23/08:30am 23.3 25.7 22.3 94 0.7 NNW 13 19 7 10 1012.8 - 25.0
23/08:22am 23.4 25.9 22.4 94 0.7 N 13 15 7 8 1012.6 - 24.8
23/08:00am 23.2 26.4 22.3 95 0.6 NNW 9 15 5 8 1012.2 - 23.8
23/07:46am 23.0 26.1 22.1 95 0.6 W 9 15 5 8 1012.2 - 23.8
23/07:30am 22.8 25.4 21.9 95 0.6 W 11 17 6 9 1012.5 - 23.8
23/07:00am - - - - - NW 17 26 9 14 - - 23.4
23/06:57am 23.1 24.3 22.2 95 0.6 WNW 19 26 10 14 1012.4 - 23.4
23/06:30am 25.4 28.7 24.5 95 0.6 N 15 20 8 11 1011.7 - 23.4
23/06:05am 25.3 28.5 24.3 94 0.7 N 15 22 8 12 1011.6 - 23.4
23/06:00am 25.3 27.7 24.3 94 0.7 N 19 22 10 12 1011.6 - 23.4
23/05:47am 25.3 27.4 24.1 93 0.8 N 20 26 11 14 1011.6 - 22.8
23/05:30am 25.7 28.7 24.7 94 0.7 N 17 22 9 12 1011.5 - 21.4
23/05:00am 25.6 29.3 24.5 94 0.8 N 13 17 7 9 1011.5 - 21.4
23/04:56am 25.6 29.3 24.5 94 0.8 N 13 24 7 13 1011.6 - 21.4
23/04:30am 25.6 29.3 24.5 94 0.8 N 13 17 7 9 1011.6 - 21.4
23/04:00am 25.5 28.9 24.1 92 1.0 N 13 19 7 10 1011.3 1009.9 21.4
23/03:30am 25.4 28.6 23.7 90 1.2 N 13 20 7 11 1011.4 - 21.4
23/03:00am 25.5 28.6 23.5 89 1.4 NNW 13 22 7 12 1011.7 - 21.4
23/02:30am 25.5 28.4 23.9 91 1.1 N 15 24 8 13 1011.8 - 21.4
23/02:29am 25.6 28.5 23.9 90 1.2 N 15 24 8 13 1011.9 - 21.4
23/02:00am 25.6 27.8 24.0 91 1.1 N 19 35 10 19 1012.1 - 21.4
23/01:30am 25.7 28.9 24.3 92 1.0 N 15 24 8 13 1012.2 - 21.4
23/01:00am 25.7 28.7 24.0 90 1.2 N 15 26 8 14 1012.2 1010.7 21.4
23/12:38am 25.7 28.2 23.8 89 1.3 NNW 17 30 9 16 1012.2 - 21.4
23/12:34am 25.7 28.1 23.7 89 1.4 N 17 26 9 14 1012.2 - 21.4
23/12:30am 25.6 28.0 23.7 89 1.3 N 17 26 9 14 1012.2 - 21.4
23/12:05am 25.4 27.2 23.2 88 1.5 NNW 19 30 10 16 1012.1 - 21.4
23/12:00am 25.3 27.0 23.1 87 1.5 N 19 30 10 16 1011.9 - 21.4
 
Date/Time
WST
Temp
°C
App
Temp
°C
Dew
Point
°C
Rel
Hum
%
Delta-T
°C
Wind Press
QNH
hPa
Press
MSL
hPa
Rain since
9am
mm
Dir  Spd
km/h
Gust
km/h
Spd
kts
Gust
kts
22/11:30pm 25.0 26.8 22.6 86 1.6 NNW 17 28 9 15 1011.9 - 21.4
22/11:00pm 24.7 26.3 22.9 90 1.2 N 19 24 10 13 1011.9 - 21.4
22/10:30pm 24.5 25.8 22.3 87 1.5 N 19 30 10 16 1011.9 - 21.4
22/10:00pm 24.8 26.2 23.6 93 0.8 N 22 32 12 17 1012.1 1010.6 21.4
22/09:54pm 24.8 25.9 23.6 93 0.8 N 24 32 13 17 1012.1 - 21.4
22/09:30pm 24.5 25.9 23.5 94 0.7 N 22 33 12 18 1011.9 - 21.4
22/09:00pm 24.3 26.1 23.6 96 0.5 N 20 28 11 15 1011.6 - 21.4
22/08:46pm 24.2 25.8 23.2 94 0.7 N 20 24 11 13 1011.4 - 21.4
22/08:30pm 24.0 25.7 23.0 94 0.7 N 19 24 10 13 1011.2 - 21.4
22/08:00pm 23.6 25.1 22.7 95 0.6 N 19 24 10 13 1011.2 - 21.4
22/07:30pm 23.9 25.5 23.3 96 0.4 N 20 32 11 17 1010.9 - 21.4
22/07:00pm 23.3 23.5 22.7 96 0.4 N 26 33 14 18 1010.4 1009.0 20.6
22/06:58pm 23.2 23.4 22.8 98 0.3 N 26 33 14 18 1010.5 - 20.6
22/06:50pm 22.9 22.8 22.3 96 0.4 N 26 35 14 19 1010.6 - 20.0
22/06:37pm 22.6 21.6 22.0 96 0.4 N 30 37 16 20 1010.5 - 19.4
22/06:34pm 22.6 22.1 22.2 98 0.3 N 28 37 15 20 1010.5 - 19.2
22/06:30pm 22.8 22.3 22.2 96 0.4 N 28 32 15 17 1010.6 - 19.0
22/06:25pm 22.6 21.7 22.2 98 0.3 N 30 44 16 24 1010.6 - 18.6
22/06:00pm 22.3 21.7 21.9 98 0.3 N 28 41 15 22 1011.0 - 15.8
22/05:45pm 23.9 26.3 23.0 95 0.6 NNW 15 28 8 15 1010.9 - 3.8
22/05:30pm 25.5 26.2 23.6 89 1.3 N 26 33 14 18 1010.4 - 2.0
22/05:00pm 26.2 27.6 24.2 89 1.4 N 24 32 13 17 1010.2 - 2.0
22/04:59pm 26.3 28.0 24.1 88 1.5 N 22 32 12 17 1010.2 - 2.0
22/04:30pm 26.6 27.7 23.1 81 2.4 N 22 32 12 17 1010.1 - 2.0
22/04:02pm 26.0 26.3 22.3 80 2.5 N 24 37 13 20 1010.2 - 2.0
22/04:00pm 26.1 26.3 22.1 78 2.7 N 24 37 13 20 1010.2 1008.8 2.0
22/03:30pm 26.4 27.4 23.5 84 2.0 N 24 43 13 23 1010.3 - 2.0
22/03:00pm 25.8 27.4 23.8 89 1.4 N 22 32 12 17 1010.5 - 2.0
22/02:30pm 25.7 27.7 24.0 90 1.2 N 20 30 11 16 1010.7 - 2.0
22/02:00pm 25.2 27.0 23.3 89 1.3 NNW 19 32 10 17 1010.9 - 2.0
22/01:53pm 25.3 27.1 23.3 89 1.4 NNW 19 30 10 16 1010.9 - 2.0
22/01:30pm 24.9 26.1 22.2 85 1.8 NNW 19 35 10 19 1011.0 - 2.0
22/01:26pm 24.7 26.1 22.5 87 1.5 NNW 19 32 10 17 1011.1 - 2.0
22/01:00pm 24.5 26.1 22.9 91 1.1 N 19 30 10 16 1011.6 1010.2 2.0
22/12:30pm 24.3 26.4 23.7 96 0.4 N 19 39 10 21 1012.3 - 2.0
22/12:02pm 24.3 25.2 23.4 95 0.6 N 24 37 13 20 1012.8 - 1.2
22/12:00pm 24.3 25.7 23.6 96 0.5 N 22 37 12 20 1012.9 - 1.2
22/11:48am 24.5 26.1 23.8 96 0.5 N 22 35 12 19 1012.8 - 0.6
22/11:30am 24.6 26.3 23.4 93 0.8 NNW 20 32 11 17 1012.6 - 0.2
22/11:00am 24.7 26.4 23.1 91 1.1 NNW 19 32 10 17 1012.7 - 0.0
22/10:30am 25.6 27.5 23.7 89 1.3 NNW 20 37 11 20 1012.8 - 0.0
22/10:00am 25.0 28.2 23.7 92 0.9 NNW 13 28 7 15 1013.0 1011.6 30.2
22/09:55am 25.0 28.1 23.5 91 1.0 NNW 13 28 7 15 1013.1 - 30.2
22/09:30am 24.9 28.3 23.4 91 1.0 NNW 11 24 6 13 1012.6 - 30.2
22/09:00am 24.2 26.9 22.9 92 0.9 NNW 13 22 7 12 1012.2 - 30.2
22/08:50am 24.3 26.7 23.0 92 0.9 NNW 15 22 8 12 1012.2 - 30.2
22/08:44am 24.4 26.8 22.9 91 1.0 NNW 15 24 8 13 1012.1 - 30.2
22/08:32am 24.5 27.6 23.6 95 0.6 N 13 17 7 9 1012.1 - 30.2
22/08:30am 24.5 27.6 23.6 95 0.6 N 13 17 7 9 1012.1 - 30.2
22/08:13am 24.7 28.8 24.0 96 0.5 N 9 13 5 7 1011.9 - 29.6
22/08:00am 24.6 28.7 23.9 96 0.5 N 9 13 5 7 1011.6 - 27.2
22/07:55am 24.6 28.7 23.9 96 0.5 N 9 15 5 8 1011.6 - 27.2
22/07:40am 24.5 28.1 23.8 96 0.5 N 11 17 6 9 1011.4 - 27.0
22/07:30am 24.5 28.0 23.6 95 0.6 NNE 11 15 6 8 1011.4 - 26.4
22/07:00am 24.3 27.3 23.4 95 0.6 NNE 13 19 7 10 1011.0 1009.6 26.4
22/06:54am 24.2 27.7 23.5 96 0.5 NNE 11 13 6 7 1011.0 - 26.4
22/06:30am 24.1 27.5 23.4 96 0.5 NNE 11 17 6 9 1010.9 - 26.4
22/06:00am 24.0 27.7 23.3 96 0.5 NNW 9 13 5 7 1011.0 - 26.4
22/05:30am 23.5 27.3 22.8 96 0.5 NNW 7 9 4 5 1010.9 - 26.4
22/05:06am 23.7 27.6 23.0 96 0.5 NNW 7 11 4 6 1010.7 - 26.4
22/05:00am 23.6 27.1 22.9 96 0.5 NNW 9 11 5 6 1010.8 - 26.4
22/04:30am 23.7 26.8 22.8 95 0.6 NNW 11 13 6 7 1011.0 - 26.4
22/04:00am 23.5 26.5 22.6 95 0.6 NNW 11 17 6 9 1010.9 1009.5 26.4
22/03:30am 23.6 26.6 22.7 95 0.6 NNW 11 15 6 8 1011.1 - 26.4
22/03:00am 23.6 26.9 22.6 94 0.7 NNW 9 15 5 8 1011.5 - 26.4
22/02:30am 23.6 26.5 22.4 93 0.8 NNW 11 15 6 8 1011.8 - 26.4
22/02:00am 23.5 26.5 22.0 91 1.0 NNW 9 15 5 8 1011.7 - 26.4

Other Formats:

Comma delimited format used in spreadsheet applications
http://www.bom.gov.au/fwo/IDW60801/IDW60801.96995.axf

JavaScript Object Notation format (JSON) in row-major order
http://www.bom.gov.au/fwo/IDW60801/IDW60801.96995.json